Portada
METAR-TAF:

METAR-TAF

Aeroports :

Ljouwert, Països Baixos

latitud: 53-13N, longitud: 005-46E, altitud: 1 m

Observació

L'informe es va fer fa 15 minuts, a les 02:35 UTC
Vent 7 kt del Nord
Temperatura 13°C
Humitat 94%
Pressió 1034 hPa
Visibilitat: 3800 m
Cel ennuvolat a una alçada de 500 ft
Cel ennuvolat a una alçada de 600 ft
Cel cobert a una alçada de 5000 ft
boirina

METAR: EHLW 270235Z AUTO 35007KT 3800 BR BKN005 BKN006 OVC050 13/12 Q1034 YLO

Hora: 04:50 (02:50 UTC)

Pronòstic

L'informe es va fer fa 2 hores i 7 minuts, a les 00:43 UTC
Pronòstic vàlid del 27 a les 01 UTC al 27 a les 13 UTC
Vent 5 kt del Nord
Visibilitat: 5000 m
boirina
Probabilitat 40%
l' 27 a les 01 UTC al 27 a les 05 UTC
Visibilitat: 3500 m
boirina, Boira superficial
Temporalment
l' 27 a les 12 UTC al 27 a les 13 UTC
Vent 10 kt del Nord/Nord-Est amb ràfegues de 20 kt

TAF: EHLW 270043Z 2701/2713 35005KT 5000 BR NSC PROB40 2701/2705 3500 BR MIFG TEMPO 2712/2713 03010G20KT

Observacions i pronòstics meteorològics de més de 4000 aeroports (METAR i TAF).

Les estacions disponibles són els punts grocs i vermells al mapa.

Posi el ratolí al punt desitjat per veure el nom de l'estació.

Feu clic per veure les observacions i els pronòstics meteorològics.

Per canviar el mapa: feu clic els botons verds amb una creu de color negre per apropar; al botó verd amb un guió per allunyar la imatge; o en les fletxes verdes per a mapes adjacents.


METAR-TAF: